Time;durP1;ratioP1;P1;durP2;ratioP2;P2;SDS_P1;SDS_P2;PMS_P1;PMS_P2;Temp;Humidity;BMP_temperature;BMP_pressure;BME280_temperature;BME280_humidity;BME280_pressure;Samples;Min_cycle;Max_cycle;Signal;HPM_P1;HPM_P2
2023/05/21 00:01:24;;;;;;;;;;;;;;;18.89;53.79;99243.28;5072989;28;19905;-78
2023/05/21 00:03:50;;;;;;;;;;;;;;;18.88;53.81;99242.47;5073163;28;20354;-78
2023/05/21 00:06:15;;;;;;;;;;;;;;;18.88;53.79;99242.47;5073053;28;20038;-78
2023/05/21 00:08:41;;;;;;;;;;;;;;;18.88;53.47;99238.97;5073111;28;19950;-78
2023/05/21 00:11:07;;;;;;;;;;;;;;;18.91;53.53;99235.81;5073052;28;19915;-79
2023/05/21 00:13:32;;;;;;;;;;;;;;;18.91;53.38;99233.97;5073134;28;20018;-78
2023/05/21 00:15:57;;;;;;;;;;;;;;;18.94;53.48;99238.81;5073093;28;20369;-78
2023/05/21 00:18:24;;;;;;;;;;;;;;;18.96;53.47;99239.41;5072762;28;19908;-78
2023/05/21 00:20:49;;;;;;;;;;;;;;;18.95;53.19;99223.59;5073011;28;19909;-78
2023/05/21 00:23:17;;;;;;;;;;;;;;;18.98;53.01;99233.81;5072761;28;20442;-78
2023/05/21 00:25:43;;;;;;;;;;;;;;;19.00;53.20;99226.34;5072748;28;19912;-79
2023/05/21 00:28:08;;;;;;;;;;;;;;;19.00;53.17;99219.13;5072399;28;20405;-78
2023/05/21 00:30:34;;;;;;;;;;;;;;;18.99;53.28;99209.50;5072463;28;19930;-79
2023/05/21 00:33:01;;;;;;;;;;;;;;;18.99;53.16;99214.03;5072466;28;19990;-78
2023/05/21 00:35:26;;;;;;;;;;;;;;;18.98;53.23;99207.88;5071251;28;19904;-78
2023/05/21 00:37:52;;;;;;;;;;;;;;;18.98;53.24;99205.19;5072475;28;19908;-78
2023/05/21 00:40:18;;;;;;;;;;;;;;;18.95;53.13;99211.03;5071084;28;19912;-78
2023/05/21 00:42:46;;;;;;;;;;;;;;;18.94;53.30;99214.75;5072499;28;19911;-77
2023/05/21 00:45:13;;;;;;;;;;;;;;;18.97;53.17;99221.47;5072309;28;20007;-77
2023/05/21 00:47:40;;;;;;;;;;;;;;;18.98;53.17;99212.41;5072296;28;19999;-77
2023/05/21 00:50:06;;;;;;;;;;;;;;;18.97;53.26;99200.09;5073351;28;20381;-76
2023/05/21 00:52:32;;;;;;;;;;;;;;;18.98;53.03;99199.84;5073641;28;19995;-78
2023/05/21 00:54:57;;;;;;;;;;;;;;;18.97;53.12;99192.06;5072810;28;19912;-78
2023/05/21 00:57:25;;;;;;;;;;;;;;;19.00;53.10;99194.25;5072319;28;19908;-78
2023/05/21 00:59:51;;;;;;;;;;;;;;;18.99;53.09;99193.44;5072573;28;20498;-77
2023/05/21 01:02:17;;;;;;;;;;;;;;;18.99;52.99;99197.97;5072150;28;19916;-77
2023/05/21 01:04:43;;;;;;;;;;;;;;;18.96;53.17;99188.56;5071913;28;19922;-78
2023/05/21 01:07:09;;;;;;;;;;;;;;;18.98;53.32;99197.16;5071834;28;20385;-78
2023/05/21 01:09:34;;;;;;;;;;;;;;;18.99;53.23;99190.75;5071719;28;19911;-79
2023/05/21 01:12:00;;;;;;;;;;;;;;;18.98;53.07;99191.81;5071901;28;20314;-78
2023/05/21 01:14:25;;;;;;;;;;;;;;;18.98;53.03;99188.31;5071671;28;20420;-78
2023/05/21 01:16:51;;;;;;;;;;;;;;;18.96;53.23;99187.75;5071897;28;19908;-78
2023/05/21 01:19:21;;;;;;;;;;;;;;;18.96;53.37;99185.91;5071854;28;20442;-78
2023/05/21 01:21:51;;;;;;;;;;;;;;;18.99;53.33;99188.09;5071821;28;19951;-78
2023/05/21 01:24:17;;;;;;;;;;;;;;;19.00;53.18;99187.03;5071761;28;19965;-78
2023/05/21 01:26:43;;;;;;;;;;;;;;;19.02;53.30;99189.47;5071817;28;19916;-78
2023/05/21 01:29:11;;;;;;;;;;;;;;;19.02;53.30;99189.47;5071634;28;19923;-78
2023/05/21 01:32:12;;;;;;;;;;;;;;;19.03;53.11;99185.75;5071920;28;20341;-77
2023/05/21 01:35:01;;;;;;;;;;;;;;;19.02;53.13;99195.63;5071815;28;19923;-78
2023/05/21 01:37:29;;;;;;;;;;;;;;;19.00;53.24;99181.69;5071590;28;20373;-78
2023/05/21 01:39:57;;;;;;;;;;;;;;;18.99;53.14;99181.91;5071578;28;20387;-79
2023/05/21 01:42:23;;;;;;;;;;;;;;;18.98;53.30;99177.63;5071620;28;19909;-79
2023/05/21 01:44:50;;;;;;;;;;;;;;;18.95;53.24;99175.44;5071672;28;19920;-78
2023/05/21 01:47:16;;;;;;;;;;;;;;;18.97;53.17;99173.31;5071555;28;20309;-78
2023/05/21 01:49:42;;;;;;;;;;;;;;;18.96;53.26;99175.19;5071463;28;19931;-78
2023/05/21 01:52:08;;;;;;;;;;;;;;;18.95;53.35;99175.44;5071538;28;20372;-78
2023/05/21 01:54:33;;;;;;;;;;;;;;;18.94;53.10;99176.47;5071400;28;20343;-77
2023/05/21 01:56:58;;;;;;;;;;;;;;;18.92;53.17;99173.25;5071482;28;19962;-78
2023/05/21 01:59:24;;;;;;;;;;;;;;;18.93;53.19;99180.22;5071306;28;19919;-78
2023/05/21 02:01:49;;;;;;;;;;;;;;;18.91;53.01;99179.63;5070158;28;19908;-78
2023/05/21 02:04:14;;;;;;;;;;;;;;;18.87;53.19;99182.00;5071472;28;19934;-78
2023/05/21 02:06:40;;;;;;;;;;;;;;;18.86;53.24;99171.53;5071486;28;19947;-78
2023/05/21 02:09:05;;;;;;;;;;;;;;;18.84;53.26;99176.31;5071400;28;19966;-78
2023/05/21 02:11:31;;;;;;;;;;;;;;;18.80;53.33;99172.50;5071325;28;20003;-79
2023/05/21 02:13:56;;;;;;;;;;;;;;;18.78;53.32;99177.28;5071328;28;19970;-79
2023/05/21 02:16:21;;;;;;;;;;;;;;;18.76;53.41;99174.03;5071270;28;19908;-77
2023/05/21 02:19:05;;;;;;;;;;;;;;;18.75;53.50;99175.88;5071367;28;19908;-78
2023/05/21 02:21:31;;;;;;;;;;;;;;;18.79;53.62;99176.22;5071358;28;19915;-78
2023/05/21 02:23:56;;;;;;;;;;;;;;;18.81;53.39;99179.47;5071228;28;19913;-76
2023/05/21 02:26:21;;;;;;;;;;;;;;;18.78;53.65;99175.41;5074381;28;19909;-78
2023/05/21 02:28:47;;;;;;;;;;;;;;;18.78;53.67;99171.91;5074478;28;20328;-78
2023/05/21 02:31:12;;;;;;;;;;;;;;;18.78;53.48;99170.06;5074794;28;19909;-78
2023/05/21 02:33:38;;;;;;;;;;;;;;;18.77;53.87;99173.78;5074887;28;20301;-78
2023/05/21 02:36:04;;;;;;;;;;;;;;;18.78;53.66;99174.59;5073625;28;19989;-78
2023/05/21 02:38:31;;;;;;;;;;;;;;;18.76;53.83;99171.34;5074557;28;20436;-78
2023/05/21 02:40:56;;;;;;;;;;;;;;;18.74;54.01;99182.28;5074485;28;20381;-78
2023/05/21 02:43:21;;;;;;;;;;;;;;;18.73;53.75;99172.63;5074455;28;19924;-77
2023/05/21 02:45:47;;;;;;;;;;;;;;;18.73;53.98;99173.44;5074724;28;20300;-78
2023/05/21 02:48:12;;;;;;;;;;;;;;;18.74;54.14;99182.28;5074857;28;19908;-77
2023/05/21 02:50:37;;;;;;;;;;;;;;;18.77;54.12;99173.78;5074719;28;19900;-78
2023/05/21 02:53:03;;;;;;;;;;;;;;;18.77;53.69;99176.47;5074499;28;20381;-78
2023/05/21 02:55:28;;;;;;;;;;;;;;;18.76;54.03;99172.16;5074492;28;19915;-78
2023/05/21 02:57:53;;;;;;;;;;;;;;;18.76;54.19;99176.69;5074881;28;19909;-78
2023/05/21 03:00:18;;;;;;;;;;;;;;;18.77;54.41;99178.31;5075058;28;19944;-79
2023/05/21 03:02:44;;;;;;;;;;;;;;;18.78;54.32;99170.06;5075316;28;20385;-79
2023/05/21 03:05:09;;;;;;;;;;;;;;;18.78;54.48;99171.91;5075143;28;19919;-79
2023/05/21 03:07:35;;;;;;;;;;;;;;;18.78;54.53;99172.72;5074938;28;20346;-78
2023/05/21 03:10:00;;;;;;;;;;;;;;;18.80;54.73;99167.13;5074927;28;19915;-78
2023/05/21 03:12:25;;;;;;;;;;;;;;;18.75;54.43;99175.88;5074968;28;19931;-78
2023/05/21 03:14:51;;;;;;;;;;;;;;;18.75;54.50;99169.72;5075367;28;19909;-78
2023/05/21 03:17:17;;;;;;;;;;;;;;;18.75;54.68;99175.88;5074897;28;19908;-79
2023/05/21 03:19:43;;;;;;;;;;;;;;;18.77;54.59;99175.66;5074786;28;19962;-79
2023/05/21 03:22:09;;;;;;;;;;;;;;;18.77;54.51;99176.47;5075118;28;19912;-78
2023/05/21 03:24:35;;;;;;;;;;;;;;;18.77;54.41;99179.13;5073221;28;19913;-78
2023/05/21 03:27:01;;;;;;;;;;;;;;;18.78;54.51;99178.06;5074358;28;19935;-78
2023/05/21 03:29:27;;;;;;;;;;;;;;;18.80;54.50;99175.97;5073664;28;19916;-78
2023/05/21 03:31:55;;;;;;;;;;;;;;;18.80;54.45;99177.84;5072611;28;19964;-78
2023/05/21 03:34:20;;;;;;;;;;;;;;;18.81;54.45;99182.13;5073851;28;19912;-78
2023/05/21 03:36:46;;;;;;;;;;;;;;;18.79;54.18;99177.03;5073433;28;19916;-78
2023/05/21 03:39:11;;;;;;;;;;;;;;;18.77;53.91;99173.78;5073698;28;19923;-78
2023/05/21 03:41:37;;;;;;;;;;;;;;;18.77;54.17;99171.09;5073494;28;19908;-78
2023/05/21 03:44:02;;;;;;;;;;;;;;;18.78;53.90;99175.41;5073766;28;20308;-78
2023/05/21 03:46:27;;;;;;;;;;;;;;;18.80;54.00;99175.16;5073615;28;19997;-77
2023/05/21 03:48:53;;;;;;;;;;;;;;;18.80;54.17;99178.66;5073417;28;19912;-78
2023/05/21 03:51:19;;;;;;;;;;;;;;;18.81;54.34;99182.13;5073379;28;20459;-78
2023/05/21 03:53:44;;;;;;;;;;;;;;;18.79;54.10;99174.34;5073312;28;19951;-78
2023/05/21 03:56:10;;;;;;;;;;;;;;;18.78;54.30;99175.41;5073450;28;19949;-79
2023/05/21 03:58:35;;;;;;;;;;;;;;;18.79;54.30;99179.69;5074041;28;19912;-77
2023/05/21 04:01:01;;;;;;;;;;;;;;;18.81;54.42;99176.78;5074160;28;19908;-78
2023/05/21 04:03:27;;;;;;;;;;;;;;;18.78;54.18;99177.28;5074008;28;20377;-76
2023/05/21 04:05:53;;;;;;;;;;;;;;;18.77;54.77;99187.16;5073849;28;19943;-77
2023/05/21 04:08:18;;;;;;;;;;;;;;;18.77;55.77;99181.00;5073808;28;19958;-77
2023/05/21 04:10:43;;;;;;;;;;;;;;;18.74;56.15;99184.97;5074213;28;19943;-77
2023/05/21 04:13:08;;;;;;;;;;;;;;;18.73;56.37;99184.16;5072974;28;19900;-77
2023/05/21 04:15:35;;;;;;;;;;;;;;;18.72;56.67;99197.75;5072674;28;19908;-78
2023/05/21 04:18:00;;;;;;;;;;;;;;;18.68;57.85;99196.63;5072812;28;19904;-78
2023/05/21 04:20:25;;;;;;;;;;;;;;;18.63;58.26;99205.34;5072883;28;19957;-77
2023/05/21 04:22:51;;;;;;;;;;;;;;;18.59;58.08;99220.22;5072757;28;19992;-77
2023/05/21 04:25:16;;;;;;;;;;;;;;;18.58;58.31;99215.06;5072651;28;19986;-76
2023/05/21 04:27:42;;;;;;;;;;;;;;;18.55;58.26;99212.88;5072539;28;19927;-77
2023/05/21 04:30:08;;;;;;;;;;;;;;;18.51;59.00;99214.41;5072802;28;19994;-77
2023/05/21 04:32:34;;;;;;;;;;;;;;;18.49;60.42;99209.28;5072638;28;19908;-77
2023/05/21 04:35:03;;;;;;;;;;;;;;;18.46;60.31;99215.13;5072549;28;19914;-77
2023/05/21 04:37:28;;;;;;;;;;;;;;;18.45;60.02;99220.69;5072524;28;19979;-77
2023/05/21 04:39:54;;;;;;;;;;;;;;;18.43;60.49;99220.94;5072552;28;19948;-77
2023/05/21 04:42:22;;;;;;;;;;;;;;;18.41;60.28;99223.03;5072389;28;20313;-78
2023/05/21 04:44:48;;;;;;;;;;;;;;;18.40;62.77;99224.09;5072120;28;19982;-77
2023/05/21 04:47:13;;;;;;;;;;;;;;;18.40;61.47;99216.06;5071845;28;20369;-77
2023/05/21 04:49:39;;;;;;;;;;;;;;;18.37;60.78;99222.69;5072315;28;19908;-78
2023/05/21 04:52:04;;;;;;;;;;;;;;;18.36;60.51;99223.75;5072316;28;19909;-78
2023/05/21 04:54:29;;;;;;;;;;;;;;;18.34;61.80;99228.50;5072215;28;19912;-78
2023/05/21 04:56:55;;;;;;;;;;;;;;;18.34;62.44;99230.38;5072226;28;19912;-77
2023/05/21 04:59:20;;;;;;;;;;;;;;;18.32;62.14;99229.78;5072195;28;20321;-78
2023/05/21 05:01:45;;;;;;;;;;;;;;;18.28;61.91;99232.13;5072256;28;19957;-77
2023/05/21 05:04:11;;;;;;;;;;;;;;;18.24;61.88;99224.81;5071836;28;19919;-77
2023/05/21 05:06:36;;;;;;;;;;;;;;;18.23;62.98;99228.53;5072032;28;20478;-77
2023/05/21 05:09:01;;;;;;;;;;;;;;;18.23;61.98;99231.22;5071952;28;19961;-77
2023/05/21 05:11:27;;;;;;;;;;;;;;;18.22;62.71;99235.75;5072010;28;19915;-76
2023/05/21 05:13:52;;;;;;;;;;;;;;;18.18;63.08;99231.09;5072023;28;19915;-76
2023/05/21 05:16:23;;;;;;;;;;;;;;;18.11;62.72;99228.56;5071951;28;19912;-77
2023/05/21 05:18:49;;;;;;;;;;;;;;;18.06;63.79;99223.09;5071812;28;19908;-75
2023/05/21 05:21:14;;;;;;;;;;;;;;;18.00;63.46;99238.22;5071679;28;19911;-76
2023/05/21 05:23:40;;;;;;;;;;;;;;;18.01;61.92;99231.81;5071775;28;19919;-77
2023/05/21 05:26:05;;;;;;;;;;;;;;;18.03;63.97;99224.38;5071717;28;19947;-77
2023/05/21 05:28:30;;;;;;;;;;;;;;;18.05;64.64;99232.97;5071434;28;19923;-77
2023/05/21 05:30:55;;;;;;;;;;;;;;;18.06;64.01;99228.44;5071623;28;19908;-77
2023/05/21 05:33:20;;;;;;;;;;;;;;;18.08;63.18;99234.38;5071733;28;19976;-77
2023/05/21 05:35:46;;;;;;;;;;;;;;;18.09;63.24;99236.00;5071857;28;19908;-78
2023/05/21 05:38:12;;;;;;;;;;;;;;;18.13;62.40;99236.34;5071830;28;19909;-78
2023/05/21 05:40:37;;;;;;;;;;;;;;;18.15;64.02;99236.91;5071595;28;20506;-78
2023/05/21 05:43:02;;;;;;;;;;;;;;;18.14;65.58;99244.13;5071582;28;19995;-78
2023/05/21 05:45:28;;;;;;;;;;;;;;;18.14;65.08;99240.63;5071556;28;19912;-78
2023/05/21 05:47:53;;;;;;;;;;;;;;;18.12;65.34;99245.41;5070363;28;20006;-77
2023/05/21 05:50:18;;;;;;;;;;;;;;;18.10;63.80;99233.09;5071715;28;19916;-78
2023/05/21 05:52:43;;;;;;;;;;;;;;;18.14;65.05;99243.31;5071527;28;19956;-77
2023/05/21 05:55:10;;;;;;;;;;;;;;;18.14;66.52;99233.44;5071601;28;19912;-78
2023/05/21 05:57:35;;;;;;;;;;;;;;;18.15;64.21;99235.06;5071808;28;19961;-77
2023/05/21 06:00:01;;;;;;;;;;;;;;;18.18;65.41;99239.13;5074746;28;19908;-78
2023/05/21 06:02:26;;;;;;;;;;;;;;;18.20;64.95;99235.16;5075009;28;19914;-77
2023/05/21 06:04:51;;;;;;;;;;;;;;;18.22;65.05;99232.25;5076655;28;19978;-77
2023/05/21 06:07:17;;;;;;;;;;;;;;;18.23;65.73;99225.88;5076105;28;19909;-78
2023/05/21 06:09:42;;;;;;;;;;;;;;;18.24;64.61;99228.31;5075957;28;19912;-77
2023/05/21 06:12:07;;;;;;;;;;;;;;;18.28;66.08;99234.00;5075697;28;19965;-77
2023/05/21 06:14:33;;;;;;;;;;;;;;;18.28;65.05;99237.47;5075929;28;20503;-77
2023/05/21 06:16:58;;;;;;;;;;;;;;;18.30;63.65;99238.06;5075892;28;20297;-77
2023/05/21 06:19:23;;;;;;;;;;;;;;;18.33;63.96;99234.09;5075914;28;19915;-78
2023/05/21 06:21:49;;;;;;;;;;;;;;;18.35;63.39;99248.84;5075736;28;19912;-77
2023/05/21 06:24:14;;;;;;;;;;;;;;;18.36;64.65;99247.78;5075885;28;19935;-77
2023/05/21 06:26:40;;;;;;;;;;;;;;;18.34;63.64;99247.22;5075821;28;19958;-78
2023/05/21 06:29:06;;;;;;;;;;;;;;;18.36;64.29;99242.44;5074832;28;19920;-78
2023/05/21 06:31:31;;;;;;;;;;;;;;;18.38;63.42;99242.22;5074879;28;19908;-78
2023/05/21 06:33:57;;;;;;;;;;;;;;;18.39;62.73;99247.31;5075184;28;19912;-78
2023/05/21 06:36:24;;;;;;;;;;;;;;;18.40;62.68;99250.81;5074901;28;19915;-78
2023/05/21 06:38:51;;;;;;;;;;;;;;;18.41;63.69;99245.22;5074590;28;19924;-77
2023/05/21 06:41:16;;;;;;;;;;;;;;;18.40;63.68;99227.56;5074514;28;19915;-76
2023/05/21 06:43:41;;;;;;;;;;;;;;;18.39;64.20;99241.97;5075377;28;19916;-77
2023/05/21 06:46:07;;;;;;;;;;;;;;;18.39;64.17;99233.16;5075330;28;20369;-77
2023/05/21 06:48:32;;;;;;;;;;;;;;;18.39;63.43;99235.81;5075626;28;19982;-77
2023/05/21 06:50:57;;;;;;;;;;;;;;;18.39;63.94;99236.63;5075681;28;19915;-77
2023/05/21 06:53:23;;;;;;;;;;;;;;;18.40;63.54;99234.78;5075068;28;20285;-77
2023/05/21 06:55:52;;;;;;;;;;;;;;;18.40;63.40;99226.75;5074965;28;19908;-76
2023/05/21 06:58:17;;;;;;;;;;;;;;;18.40;64.02;99235.59;5073517;28;20360;-77
2023/05/21 07:00:42;;;;;;;;;;;;;;;18.42;65.26;99228.16;5074639;28;19909;-78
2023/05/21 07:03:08;;;;;;;;;;;;;;;18.43;66.07;99235.13;5074271;28;19916;-77
2023/05/21 07:05:33;;;;;;;;;;;;;;;18.45;65.34;99240.22;5073932;28;20446;-77
2023/05/21 07:07:58;;;;;;;;;;;;;;;18.43;64.44;99232.44;5074183;28;19908;-78
2023/05/21 07:10:23;;;;;;;;;;;;;;;18.43;64.42;99232.44;5073484;28;19920;-78
2023/05/21 07:12:49;;;;;;;;;;;;;;;18.46;64.97;99233.81;5074204;28;20305;-77
2023/05/21 07:15:14;;;;;;;;;;;;;;;18.51;64.55;99243.81;5074212;28;19909;-77
2023/05/21 07:17:39;;;;;;;;;;;;;;;18.52;65.29;99237.41;5074060;28;19908;-77
2023/05/21 07:20:06;;;;;;;;;;;;;;;18.50;65.12;99231.50;5074101;28;19958;-76
2023/05/21 07:22:31;;;;;;;;;;;;;;;18.51;64.17;99233.13;5073916;28;19916;-77
2023/05/21 07:24:57;;;;;;;;;;;;;;;18.54;64.22;99221.94;5073963;28;19912;-77
2023/05/21 07:27:22;;;;;;;;;;;;;;;18.56;63.20;99226.00;5073684;28;19908;-77
2023/05/21 07:29:47;;;;;;;;;;;;;;;18.62;63.11;99226.97;5073891;28;20351;-77
2023/05/21 07:32:12;;;;;;;;;;;;;;;18.67;63.37;99227.91;5073803;28;19943;-78
2023/05/21 07:34:38;;;;;;;;;;;;;;;18.69;63.49;99231.13;5073866;28;19930;-77
2023/05/21 07:37:03;;;;;;;;;;;;;;;18.75;63.66;99242.75;5073741;28;19908;-77
2023/05/21 07:39:28;;;;;;;;;;;;;;;18.78;62.71;99236.09;5073442;28;19908;-79
2023/05/21 07:41:53;;;;;;;;;;;;;;;18.82;62.61;99232.72;5073506;28;20364;-78
2023/05/21 07:44:19;;;;;;;;;;;;;;;18.86;62.39;99236.53;5073744;28;19913;-78
2023/05/21 07:46:44;;;;;;;;;;;;;;;18.90;62.73;99232.34;5073606;28;19908;-78
2023/05/21 07:49:15;;;;;;;;;;;;;;;18.97;62.33;99229.50;5073609;28;19912;-78
2023/05/21 07:51:40;;;;;;;;;;;;;;;19.03;61.25;99234.72;5073530;28;20007;-78
2023/05/21 07:54:05;;;;;;;;;;;;;;;19.10;62.14;99228.41;5073368;28;19940;-79
2023/05/21 07:56:31;;;;;;;;;;;;;;;19.13;61.59;99231.41;5073344;28;19908;-76
2023/05/21 07:58:56;;;;;;;;;;;;;;;19.24;61.80;99230.53;5074508;28;20316;-76
2023/05/21 08:01:22;;;;;;;;;;;;;;;19.31;61.09;99228.50;5074113;28;19954;-77
2023/05/21 08:03:48;;;;;;;;;;;;;;;19.39;60.24;99231.88;5073775;28;19912;-77
2023/05/21 08:06:13;;;;;;;;;;;;;;;19.40;59.74;99231.63;5073448;28;19991;-76
2023/05/21 08:08:38;;;;;;;;;;;;;;;19.47;58.91;99231.47;5074375;28;20308;-77
2023/05/21 08:11:03;;;;;;;;;;;;;;;19.51;59.27;99238.75;5074217;28;19908;-77
2023/05/21 08:13:29;;;;;;;;;;;;;;;19.57;58.53;99239.69;5073671;28;20452;-77
2023/05/21 08:15:54;;;;;;;;;;;;;;;19.63;57.36;99241.38;5073780;28;19915;-75
2023/05/21 08:18:19;;;;;;;;;;;;;;;19.68;57.56;99244.97;5073284;28;19959;-76
2023/05/21 08:20:45;;;;;;;;;;;;;;;19.78;57.45;99230.91;5073732;28;20004;-77
2023/05/21 08:23:10;;;;;;;;;;;;;;;19.83;56.42;99236.34;5072279;28;20061;-75
2023/05/21 08:25:35;;;;;;;;;;;;;;;19.85;57.03;99228.88;5073563;28;19919;-77
2023/05/21 08:28:01;;;;;;;;;;;;;;;19.85;56.33;99233.41;5073366;28;19923;-76
2023/05/21 08:30:26;;;;;;;;;;;;;;;19.85;56.63;99231.53;5073435;28;19908;-78
2023/05/21 08:32:51;;;;;;;;;;;;;;;19.84;56.25;99234.47;5072990;28;20367;-77
2023/05/21 08:35:16;;;;;;;;;;;;;;;19.82;56.90;99239.25;5073571;28;19915;-78
2023/05/21 08:37:42;;;;;;;;;;;;;;;19.83;56.55;99227.50;5073586;28;19977;-78
2023/05/21 08:40:08;;;;;;;;;;;;;;;19.87;56.83;99229.44;5073506;28;19901;-78
2023/05/21 08:42:39;;;;;;;;;;;;;;;19.96;56.95;99232.50;5072867;28;19916;-77
2023/05/21 08:45:08;;;;;;;;;;;;;;;20.02;57.36;99233.38;5072141;28;19916;-77
2023/05/21 08:47:34;;;;;;;;;;;;;;;20.02;56.26;99234.19;5072307;28;19912;-77
2023/05/21 08:50:01;;;;;;;;;;;;;;;20.08;56.71;99235.91;5072369;28;19962;-78
2023/05/21 08:52:26;;;;;;;;;;;;;;;20.09;56.43;99237.53;5072149;28;19955;-78
2023/05/21 08:54:52;;;;;;;;;;;;;;;20.11;56.25;99235.41;5072212;28;19908;-78
2023/05/21 08:57:18;;;;;;;;;;;;;;;20.12;56.16;99244.28;5072172;28;19913;-78
2023/05/21 08:59:44;;;;;;;;;;;;;;;20.12;54.85;99242.41;5072312;28;19908;-77
2023/05/21 09:02:12;;;;;;;;;;;;;;;20.13;55.07;99243.22;5072047;28;19961;-78
2023/05/21 09:04:40;;;;;;;;;;;;;;;20.16;54.97;99246.22;5072000;28;20405;-78
2023/05/21 09:07:06;;;;;;;;;;;;;;;20.23;55.58;99241.47;5072125;28;19909;-78
2023/05/21 09:09:33;;;;;;;;;;;;;;;20.30;55.42;99246.66;5070070;28;19912;-78
2023/05/21 09:11:58;;;;;;;;;;;;;;;20.35;55.32;99253.97;5067732;28;19912;-78
2023/05/21 09:14:24;;;;;;;;;;;;;;;20.38;55.25;99256.13;5069961;28;20391;-78
2023/05/21 09:16:49;;;;;;;;;;;;;;;20.37;55.06;99251.84;5060334;28;19909;-77
2023/05/21 09:19:14;;;;;;;;;;;;;;;20.39;54.93;99255.06;5070208;28;19919;-79
2023/05/21 09:21:40;;;;;;;;;;;;;;;20.35;54.83;99252.09;5059903;28;19912;-78
2023/05/21 09:24:08;;;;;;;;;;;;;;;20.36;55.00;99255.56;5061850;28;20389;-78
2023/05/21 09:26:33;;;;;;;;;;;;;;;20.34;54.24;99252.34;5067681;28;19923;-78
2023/05/21 09:28:59;;;;;;;;;;;;;;;20.37;54.94;99255.31;5069094;28;19920;-78
2023/05/21 09:31:27;;;;;;;;;;;;;;;20.39;54.56;99258.59;5050245;28;20361;-78
2023/05/21 09:33:54;;;;;;;;;;;;;;;20.42;53.10;99258.09;5057829;28;19920;-78
2023/05/21 09:36:20;;;;;;;;;;;;;;;20.42;54.29;99259.97;5056887;28;19912;-78
2023/05/21 09:38:46;;;;;;;;;;;;;;;20.41;53.91;99255.69;5058298;28;19909;-78
2023/05/21 09:41:12;;;;;;;;;;;;;;;20.41;54.08;99258.34;5061114;28;20412;-78
2023/05/21 09:43:40;;;;;;;;;;;;;;;20.38;53.68;99251.59;5064863;28;19912;-78
2023/05/21 09:46:05;;;;;;;;;;;;;;;20.34;53.12;99255.00;5054899;28;20369;-78
2023/05/21 09:48:31;;;;;;;;;;;;;;;20.28;53.35;99252.28;5066781;28;19948;-78
2023/05/21 09:51:06;;;;;;;;;;;;;;;20.25;53.75;99258.13;5059755;28;19927;-78
2023/05/21 09:53:31;;;;;;;;;;;;;;;20.21;53.66;99248.97;5055583;28;19913;-77
2023/05/21 09:55:57;;;;;;;;;;;;;;;20.18;53.35;99244.09;5065630;28;19920;-79
2023/05/21 09:58:22;;;;;;;;;;;;;;;20.14;52.74;99240.28;5064697;28;19912;-78
2023/05/21 10:00:47;;;;;;;;;;;;;;;20.14;54.23;99255.56;5062669;28;20405;-77
2023/05/21 10:03:15;;;;;;;;;;;;;;;20.12;54.08;99250.44;5049533;28;19917;-78
2023/05/21 10:05:41;;;;;;;;;;;;;;;20.09;53.85;99250.94;5049053;28;20451;-77
2023/05/21 10:08:07;;;;;;;;;;;;;;;20.04;54.29;99248.16;5050028;28;19909;-78
2023/05/21 10:10:34;;;;;;;;;;;;;;;20.07;54.38;99238.84;5051251;28;19916;-76
2023/05/21 10:13:05;;;;;;;;;;;;;;;20.04;54.32;99241.97;5050802;28;19916;-77
2023/05/21 10:15:33;;;;;;;;;;;;;;;20.00;54.50;99241.66;5052068;28;19908;-78
2023/05/21 10:18:00;;;;;;;;;;;;;;;19.97;54.33;99240.28;5052037;28;19910;-78
2023/05/21 10:20:26;;;;;;;;;;;;;;;20.00;54.40;99242.47;5051020;28;20370;-76
2023/05/21 10:22:51;;;;;;;;;;;;;;;20.02;54.72;99231.50;5051872;28;19923;-78
2023/05/21 10:25:17;;;;;;;;;;;;;;;20.04;54.41;99240.13;5052181;28;19920;-77
2023/05/21 10:27:43;;;;;;;;;;;;;;;20.02;54.36;99244.09;5051740;28;20389;-77
2023/05/21 10:30:08;;;;;;;;;;;;;;;19.93;54.52;99247.19;5051996;28;19909;-77
2023/05/21 10:32:34;;;;;;;;;;;;;;;19.99;54.57;99237.38;5051990;28;19915;-78
2023/05/21 10:35:01;;;;;;;;;;;;;;;20.06;53.89;99238.00;5052463;28;19908;-78
2023/05/21 10:37:26;;;;;;;;;;;;;;;20.07;53.88;99241.53;5051827;28;19912;-78
2023/05/21 10:39:52;;;;;;;;;;;;;;;20.07;54.14;99239.66;5051953;28;20408;-78
2023/05/21 10:42:30;;;;;;;;;;;;;;;20.07;54.48;99236.97;5051461;28;19977;-79
2023/05/21 10:45:14;;;;;;;;;;;;;;;20.10;54.55;99236.47;5050967;28;19919;-78
2023/05/21 10:48:01;;;;;;;;;;;;;;;20.11;54.44;99245.34;5054507;28;19915;-78
2023/05/21 10:50:45;;;;;;;;;;;;;;;20.18;54.70;99240.59;5054963;28;19912;-78
2023/05/21 10:53:10;;;;;;;;;;;;;;;20.18;54.47;99245.97;5054503;28;20330;-78
2023/05/21 10:55:48;;;;;;;;;;;;;;;20.31;54.17;99250.97;5053307;28;19912;-78
2023/05/21 10:58:20;;;;;;;;;;;;;;;20.37;54.07;99243.78;5053144;28;19909;-77
2023/05/21 11:00:45;;;;;;;;;;;;;;;20.43;53.71;99246.31;5054516;28;20405;-77
2023/05/21 11:03:11;;;;;;;;;;;;;;;20.49;52.91;99245.31;5054245;28;19959;-77
2023/05/21 11:05:42;;;;;;;;;;;;;;;20.57;53.57;99249.44;5054259;28;19959;-78
2023/05/21 11:08:24;;;;;;;;;;;;;;;20.69;53.29;99255.47;5054324;28;19988;-77
2023/05/21 11:10:53;;;;;;;;;;;;;;;21.02;52.89;99240.28;5053105;28;20350;-78
2023/05/21 11:13:20;;;;;;;;;;;;;;;21.30;52.14;99249.97;5054597;28;19920;-78
2023/05/21 11:15:58;;;;;;;;;;;;;;;21.36;51.58;99244.41;5054165;28;20365;-77
2023/05/21 11:18:29;;;;;;;;;;;;;;;21.41;51.59;99239.06;5053975;28;19908;-78
2023/05/21 11:21:02;;;;;;;;;;;;;;;21.44;51.78;99249.31;5053976;28;19992;-78
2023/05/21 11:24:03;;;;;;;;;;;;;;;21.30;51.81;99250.78;5053782;28;19991;-78
2023/05/21 11:26:30;;;;;;;;;;;;;;;21.17;52.27;99248.50;5012088;28;19947;-78
2023/05/21 11:29:05;;;;;;;;;;;;;;;21.16;52.61;99249.56;5045274;28;19951;-77
2023/05/21 11:31:38;;;;;;;;;;;;;;;21.13;52.81;99244.69;5053819;28;19970;-78
2023/05/21 11:34:10;;;;;;;;;;;;;;;21.10;52.55;99237.97;5053795;28;19915;-78
2023/05/21 11:36:38;;;;;;;;;;;;;;;21.10;52.59;99239.84;5053972;28;19915;-77
2023/05/21 11:39:11;;;;;;;;;;;;;;;21.03;53.01;99237.34;5053849;28;19948;-77
2023/05/21 11:42:11;;;;;;;;;;;;;;;20.93;52.90;99231.88;5053717;28;19909;-78
2023/05/21 11:44:40;;;;;;;;;;;;;;;20.90;53.33;99232.41;5011933;28;19914;-77
2023/05/21 11:47:06;;;;;;;;;;;;;;;20.90;53.25;99235.06;5045694;28;20003;-78
2023/05/21 11:49:32;;;;;;;;;;;;;;;20.91;53.12;99239.38;5053399;28;19904;-78
2023/05/21 11:52:01;;;;;;;;;;;;;;;20.92;52.89;99224.91;5053252;28;20286;-78
2023/05/21 11:54:34;;;;;;;;;;;;;;;20.96;53.34;99222.50;5053296;28;19916;-78
2023/05/21 11:57:00;;;;;;;;;;;;;;;20.98;52.90;99223.88;5053188;28;20340;-77
2023/05/21 11:59:26;;;;;;;;;;;;;;;21.03;52.76;99217.75;5053196;28;19915;-77
2023/05/21 12:01:51;;;;;;;;;;;;;;;21.05;52.55;99210.25;5053199;28;19991;-78
2023/05/21 12:04:16;;;;;;;;;;;;;;;21.07;52.75;99200.88;5052996;28;20004;-78
2023/05/21 12:06:41;;;;;;;;;;;;;;;21.07;52.87;99205.44;5052934;28;20400;-78
2023/05/21 12:09:10;;;;;;;;;;;;;;;21.08;52.96;99204.38;5053109;28;20275;-78
2023/05/21 12:11:39;;;;;;;;;;;;;;;21.13;52.89;99204.44;5053188;28;19983;-78
2023/05/21 12:14:08;;;;;;;;;;;;;;;21.11;52.38;99201.19;5053083;28;19909;-78
2023/05/21 12:16:34;;;;;;;;;;;;;;;21.13;52.75;99199.06;5053210;28;19909;-78
2023/05/21 12:18:59;;;;;;;;;;;;;;;21.16;53.07;99202.03;5053073;28;19909;-78
2023/05/21 12:21:26;;;;;;;;;;;;;;;21.24;52.62;99198.91;5053092;28;19987;-78
2023/05/21 12:23:52;;;;;;;;;;;;;;;21.28;52.65;99199.22;5053027;28;19912;-77
2023/05/21 12:26:17;;;;;;;;;;;;;;;21.33;52.66;99193.88;5053040;28;20301;-76
2023/05/21 12:28:42;;;;;;;;;;;;;;;21.34;52.77;99192.81;5052538;28;19916;-77
2023/05/21 12:31:13;;;;;;;;;;;;;;;21.35;52.80;99194.44;5051358;28;19908;-78
2023/05/21 12:33:38;;;;;;;;;;;;;;;21.36;52.87;99185.31;5052694;28;20369;-77
2023/05/21 12:36:03;;;;;;;;;;;;;;;21.42;52.87;99184.28;5052561;28;19908;-78
2023/05/21 12:38:30;;;;;;;;;;;;;;;21.50;52.58;99181.13;5052674;28;20290;-77
2023/05/21 12:40:55;;;;;;;;;;;;;;;21.56;52.18;99177.44;5052527;28;19936;-77
2023/05/21 12:43:20;;;;;;;;;;;;;;;21.64;51.71;99180.69;5052503;28;19943;-78
2023/05/21 12:45:45;;;;;;;;;;;;;;;21.70;51.34;99175.09;5052120;28;20374;-77